Página principal
METAR-TAF:

METAR-TAF

Aeroportos :

Aeroporto Internacional de Dubai

Dubai, Emirados Árabes Unidos

latitude: 25-15-10N, longitude: 055-21-52E, altura: 8 m

Observação actual do tempo

O boletim foi feito há 43 minutos, às 21:00 UTC
Vento 3 kt de es-sudeste, variando entre es-nordeste e su-sudeste
Temperatura 22°C
Humidade 50%
Pressão 1022 hPa
Visibilidade 10 km ou mais
sem nuvens abaixo de 1500 metros e sem cumulonimbus

METAR: OMDB 162100Z 11003KT 070V160 CAVOK 22/11 Q1022 NOSIG

Hora: 01:43 (21:43 UTC)

Previsão

O boletim foi feito há 4 horas e 47 minutos, às 16:56 UTC
Previsão válida de 16 às 18 UTC a 18 às 00 UTC
Vento 7 kt de este
Visibilidade 10 km ou mais
sem nuvens abaixo de 1500 metros e sem cumulonimbus
Tornando-se
de 17 às 09 UTC a 17 às 11 UTC
Vento 12 kt de norte
Tornando-se
de 17 às 15 UTC a 17 às 17 UTC
Vento 5 kt de este

TAF: OMDB 161656Z 1618/1800 10007KT CAVOK BECMG 1709/1711 36012KT BECMG 1715/1717 08005KT

Observações e previsões do tempo de mais de 4000 aeroportos (mensagens METAR e TAF).

As estações disponíveis são os pontos amarelos e vermelhos sobre o mapa.

Mova o rato sobre o mapa para ver o nome da estação.

Depois clique no ponto para visualizar as observações e previsões meteorológicas.

Para alterar o mapa : clique nos botões verdes com uma cruz preta para aumentar o zoom; no botão verde com uma pitada de zoom; ou nas setas verdes para mapas adjacentes.


METAR-TAF: